sensor_id;sensor_type;location;lat;lon;timestamp;P1;durP1;ratioP1;P2;durP2;ratioP2
9334;SDS011;4706;41.844;26.082;2022-08-19T00:00:26;9.40;;;7.57;;
9334;SDS011;4706;41.844;26.082;2022-08-19T00:02:52;9.98;;;8.07;;
9334;SDS011;4706;41.844;26.082;2022-08-19T00:05:19;8.98;;;7.72;;
9334;SDS011;4706;41.844;26.082;2022-08-19T00:07:48;8.13;;;7.45;;
9334;SDS011;4706;41.844;26.082;2022-08-19T00:10:15;8.23;;;7.55;;
9334;SDS011;4706;41.844;26.082;2022-08-19T00:12:41;8.55;;;7.85;;
9334;SDS011;4706;41.844;26.082;2022-08-19T00:15:08;8.13;;;7.20;;
9334;SDS011;4706;41.844;26.082;2022-08-19T00:17:37;8.25;;;7.35;;
9334;SDS011;4706;41.844;26.082;2022-08-19T00:20:08;10.27;;;7.85;;
9334;SDS011;4706;41.844;26.082;2022-08-19T00:22:36;8.35;;;7.57;;
9334;SDS011;4706;41.844;26.082;2022-08-19T00:25:02;8.60;;;7.80;;
9334;SDS011;4706;41.844;26.082;2022-08-19T00:27:29;9.40;;;7.70;;
9334;SDS011;4706;41.844;26.082;2022-08-19T00:29:54;8.55;;;7.70;;
9334;SDS011;4706;41.844;26.082;2022-08-19T00:32:20;9.18;;;7.25;;
9334;SDS011;4706;41.844;26.082;2022-08-19T00:34:46;9.63;;;7.72;;
9334;SDS011;4706;41.844;26.082;2022-08-19T00:37:11;8.70;;;7.90;;
9334;SDS011;4706;41.844;26.082;2022-08-19T00:39:37;8.63;;;7.93;;
9334;SDS011;4706;41.844;26.082;2022-08-19T00:42:02;9.80;;;7.30;;
9334;SDS011;4706;41.844;26.082;2022-08-19T00:44:28;8.57;;;7.78;;
9334;SDS011;4706;41.844;26.082;2022-08-19T00:46:56;8.15;;;7.45;;
9334;SDS011;4706;41.844;26.082;2022-08-19T00:49:37;7.93;;;7.15;;
9334;SDS011;4706;41.844;26.082;2022-08-19T00:52:11;8.50;;;7.80;;
9334;SDS011;4706;41.844;26.082;2022-08-19T00:54:40;8.57;;;7.80;;
9334;SDS011;4706;41.844;26.082;2022-08-19T00:57:08;8.95;;;8.15;;
9334;SDS011;4706;41.844;26.082;2022-08-19T00:59:37;9.15;;;7.88;;
9334;SDS011;4706;41.844;26.082;2022-08-19T01:02:05;8.98;;;8.18;;
9334;SDS011;4706;41.844;26.082;2022-08-19T01:04:31;8.75;;;7.95;;
9334;SDS011;4706;41.844;26.082;2022-08-19T01:06:57;8.73;;;8.02;;
9334;SDS011;4706;41.844;26.082;2022-08-19T01:09:23;8.88;;;7.97;;
9334;SDS011;4706;41.844;26.082;2022-08-19T01:11:49;8.73;;;8.02;;
9334;SDS011;4706;41.844;26.082;2022-08-19T01:14:15;8.55;;;7.85;;
9334;SDS011;4706;41.844;26.082;2022-08-19T01:16:42;8.88;;;8.13;;
9334;SDS011;4706;41.844;26.082;2022-08-19T01:19:12;8.95;;;8.02;;
9334;SDS011;4706;41.844;26.082;2022-08-19T01:21:46;9.05;;;8.13;;
9334;SDS011;4706;41.844;26.082;2022-08-19T01:24:20;8.65;;;7.80;;
9334;SDS011;4706;41.844;26.082;2022-08-19T01:26:46;8.98;;;8.18;;
9334;SDS011;4706;41.844;26.082;2022-08-19T01:29:12;9.75;;;8.32;;
9334;SDS011;4706;41.844;26.082;2022-08-19T01:31:39;8.88;;;7.97;;
9334;SDS011;4706;41.844;26.082;2022-08-19T01:34:04;9.23;;;8.32;;
9334;SDS011;4706;41.844;26.082;2022-08-19T01:36:32;10.13;;;8.90;;
9334;SDS011;4706;41.844;26.082;2022-08-19T01:39:08;8.98;;;8.05;;
9334;SDS011;4706;41.844;26.082;2022-08-19T01:41:36;10.10;;;8.63;;
9334;SDS011;4706;41.844;26.082;2022-08-19T01:44:02;10.00;;;8.98;;
9334;SDS011;4706;41.844;26.082;2022-08-19T01:46:30;9.32;;;8.45;;
9334;SDS011;4706;41.844;26.082;2022-08-19T01:48:56;10.43;;;8.88;;
9334;SDS011;4706;41.844;26.082;2022-08-19T01:51:22;8.93;;;8.18;;
9334;SDS011;4706;41.844;26.082;2022-08-19T01:53:49;9.40;;;8.50;;
9334;SDS011;4706;41.844;26.082;2022-08-19T01:56:16;8.73;;;8.00;;
9334;SDS011;4706;41.844;26.082;2022-08-19T01:59:00;9.80;;;8.60;;
9334;SDS011;4706;41.844;26.082;2022-08-19T02:01:29;10.50;;;8.70;;
9334;SDS011;4706;41.844;26.082;2022-08-19T02:03:58;10.80;;;8.82;;
9334;SDS011;4706;41.844;26.082;2022-08-19T02:06:26;10.30;;;9.23;;
9334;SDS011;4706;41.844;26.082;2022-08-19T02:08:52;11.68;;;9.70;;
9334;SDS011;4706;41.844;26.082;2022-08-19T02:11:22;12.40;;;9.05;;
9334;SDS011;4706;41.844;26.082;2022-08-19T02:13:51;9.73;;;8.82;;
9334;SDS011;4706;41.844;26.082;2022-08-19T02:16:18;9.90;;;8.90;;
9334;SDS011;4706;41.844;26.082;2022-08-19T02:18:45;8.88;;;8.02;;
9334;SDS011;4706;41.844;26.082;2022-08-19T02:21:17;9.77;;;8.75;;
9334;SDS011;4706;41.844;26.082;2022-08-19T02:23:44;9.73;;;8.77;;
9334;SDS011;4706;41.844;26.082;2022-08-19T02:26:10;8.70;;;7.97;;
9334;SDS011;4706;41.844;26.082;2022-08-19T02:28:36;9.70;;;8.70;;
9334;SDS011;4706;41.844;26.082;2022-08-19T02:31:02;9.18;;;7.90;;
9334;SDS011;4706;41.844;26.082;2022-08-19T02:33:28;8.60;;;7.90;;
9334;SDS011;4706;41.844;26.082;2022-08-19T02:35:54;9.18;;;8.27;;
9334;SDS011;4706;41.844;26.082;2022-08-19T02:38:20;9.10;;;8.40;;
9334;SDS011;4706;41.844;26.082;2022-08-19T02:41:02;8.68;;;7.82;;
9334;SDS011;4706;41.844;26.082;2022-08-19T02:43:30;11.63;;;8.77;;
9334;SDS011;4706;41.844;26.082;2022-08-19T02:45:59;9.10;;;8.20;;
9334;SDS011;4706;41.844;26.082;2022-08-19T02:48:25;9.30;;;8.40;;
9334;SDS011;4706;41.844;26.082;2022-08-19T02:50:51;9.30;;;8.32;;
9334;SDS011;4706;41.844;26.082;2022-08-19T02:53:21;10.00;;;9.10;;
9334;SDS011;4706;41.844;26.082;2022-08-19T02:55:48;8.95;;;8.30;;
9334;SDS011;4706;41.844;26.082;2022-08-19T02:58:15;8.93;;;8.13;;
9334;SDS011;4706;41.844;26.082;2022-08-19T03:00:42;8.75;;;7.90;;
9334;SDS011;4706;41.844;26.082;2022-08-19T03:03:09;9.65;;;8.65;;
9334;SDS011;4706;41.844;26.082;2022-08-19T03:05:34;9.75;;;8.93;;
9334;SDS011;4706;41.844;26.082;2022-08-19T03:08:00;9.60;;;8.80;;
9334;SDS011;4706;41.844;26.082;2022-08-19T03:10:26;9.88;;;8.85;;
9334;SDS011;4706;41.844;26.082;2022-08-19T03:12:52;9.70;;;8.77;;
9334;SDS011;4706;41.844;26.082;2022-08-19T03:15:18;9.93;;;9.00;;
9334;SDS011;4706;41.844;26.082;2022-08-19T03:17:43;10.85;;;9.73;;
9334;SDS011;4706;41.844;26.082;2022-08-19T03:20:09;9.38;;;8.57;;
9334;SDS011;4706;41.844;26.082;2022-08-19T03:22:34;9.45;;;8.55;;
9334;SDS011;4706;41.844;26.082;2022-08-19T03:25:00;9.70;;;8.90;;
9334;SDS011;4706;41.844;26.082;2022-08-19T03:27:25;10.32;;;9.23;;
9334;SDS011;4706;41.844;26.082;2022-08-19T03:29:52;9.85;;;8.82;;
9334;SDS011;4706;41.844;26.082;2022-08-19T03:32:17;12.25;;;10.13;;
9334;SDS011;4706;41.844;26.082;2022-08-19T03:34:43;9.68;;;8.68;;
9334;SDS011;4706;41.844;26.082;2022-08-19T03:37:09;10.50;;;9.15;;
9334;SDS011;4706;41.844;26.082;2022-08-19T03:39:39;25.20;;;10.15;;
9334;SDS011;4706;41.844;26.082;2022-08-19T03:42:07;11.15;;;9.15;;
9334;SDS011;4706;41.844;26.082;2022-08-19T03:44:33;10.10;;;9.02;;
9334;SDS011;4706;41.844;26.082;2022-08-19T03:46:59;10.35;;;9.35;;
9334;SDS011;4706;41.844;26.082;2022-08-19T03:49:26;10.30;;;9.25;;
9334;SDS011;4706;41.844;26.082;2022-08-19T03:51:53;10.05;;;9.13;;
9334;SDS011;4706;41.844;26.082;2022-08-19T03:54:21;10.38;;;9.38;;
9334;SDS011;4706;41.844;26.082;2022-08-19T03:56:49;10.77;;;9.88;;
9334;SDS011;4706;41.844;26.082;2022-08-19T03:59:21;10.35;;;9.55;;
9334;SDS011;4706;41.844;26.082;2022-08-19T04:01:50;13.05;;;11.80;;
9334;SDS011;4706;41.844;26.082;2022-08-19T04:04:16;13.50;;;12.32;;
9334;SDS011;4706;41.844;26.082;2022-08-19T04:06:42;12.07;;;11.00;;
9334;SDS011;4706;41.844;26.082;2022-08-19T04:09:09;13.70;;;12.45;;
9334;SDS011;4706;41.844;26.082;2022-08-19T04:11:37;12.48;;;11.45;;
9334;SDS011;4706;41.844;26.082;2022-08-19T04:14:12;11.35;;;10.45;;
9334;SDS011;4706;41.844;26.082;2022-08-19T04:16:39;11.95;;;10.88;;
9334;SDS011;4706;41.844;26.082;2022-08-19T04:19:05;11.80;;;10.60;;
9334;SDS011;4706;41.844;26.082;2022-08-19T04:21:32;12.35;;;11.15;;
9334;SDS011;4706;41.844;26.082;2022-08-19T04:23:58;11.07;;;9.50;;
9334;SDS011;4706;41.844;26.082;2022-08-19T04:26:26;10.77;;;9.80;;
9334;SDS011;4706;41.844;26.082;2022-08-19T04:28:55;10.50;;;9.50;;
9334;SDS011;4706;41.844;26.082;2022-08-19T04:31:21;10.77;;;9.77;;
9334;SDS011;4706;41.844;26.082;2022-08-19T04:33:51;10.52;;;9.63;;
9334;SDS011;4706;41.844;26.082;2022-08-19T04:36:29;10.63;;;9.68;;
9334;SDS011;4706;41.844;26.082;2022-08-19T04:38:57;11.27;;;9.25;;
9334;SDS011;4706;41.844;26.082;2022-08-19T04:41:24;10.50;;;9.60;;
9334;SDS011;4706;41.844;26.082;2022-08-19T04:44:10;10.75;;;9.30;;
9334;SDS011;4706;41.844;26.082;2022-08-19T04:46:37;12.70;;;9.63;;
9334;SDS011;4706;41.844;26.082;2022-08-19T04:49:04;13.00;;;10.50;;
9334;SDS011;4706;41.844;26.082;2022-08-19T04:51:31;11.38;;;10.30;;
9334;SDS011;4706;41.844;26.082;2022-08-19T04:53:58;11.30;;;10.35;;
9334;SDS011;4706;41.844;26.082;2022-08-19T04:56:25;13.32;;;9.55;;
9334;SDS011;4706;41.844;26.082;2022-08-19T04:58:52;10.60;;;9.73;;
9334;SDS011;4706;41.844;26.082;2022-08-19T05:01:21;10.80;;;9.80;;
9334;SDS011;4706;41.844;26.082;2022-08-19T05:03:49;10.48;;;9.45;;
9334;SDS011;4706;41.844;26.082;2022-08-19T05:06:16;10.68;;;9.77;;
9334;SDS011;4706;41.844;26.082;2022-08-19T05:08:44;24.63;;;11.18;;
9334;SDS011;4706;41.844;26.082;2022-08-19T05:13:36;10.77;;;9.40;;
9334;SDS011;4706;41.844;26.082;2022-08-19T05:16:02;10.23;;;9.18;;
9334;SDS011;4706;41.844;26.082;2022-08-19T05:18:28;10.48;;;9.07;;
9334;SDS011;4706;41.844;26.082;2022-08-19T05:21:13;10.43;;;9.55;;
9334;SDS011;4706;41.844;26.082;2022-08-19T05:24:00;14.50;;;10.73;;
9334;SDS011;4706;41.844;26.082;2022-08-19T05:26:27;11.15;;;9.82;;
9334;SDS011;4706;41.844;26.082;2022-08-19T05:28:53;10.18;;;9.27;;
9334;SDS011;4706;41.844;26.082;2022-08-19T05:31:19;10.25;;;9.27;;
9334;SDS011;4706;41.844;26.082;2022-08-19T05:33:45;11.30;;;10.15;;
9334;SDS011;4706;41.844;26.082;2022-08-19T05:36:10;10.35;;;9.30;;
9334;SDS011;4706;41.844;26.082;2022-08-19T05:38:36;10.10;;;9.13;;
9334;SDS011;4706;41.844;26.082;2022-08-19T05:41:06;10.40;;;9.43;;
9334;SDS011;4706;41.844;26.082;2022-08-19T05:43:35;10.52;;;9.50;;
9334;SDS011;4706;41.844;26.082;2022-08-19T05:46:02;14.90;;;13.45;;
9334;SDS011;4706;41.844;26.082;2022-08-19T05:48:34;10.63;;;9.52;;
9334;SDS011;4706;41.844;26.082;2022-08-19T05:51:07;10.32;;;9.32;;
9334;SDS011;4706;41.844;26.082;2022-08-19T05:53:33;11.60;;;10.45;;
9334;SDS011;4706;41.844;26.082;2022-08-19T05:56:07;10.63;;;9.73;;
9334;SDS011;4706;41.844;26.082;2022-08-19T05:58:36;18.23;;;10.00;;
9334;SDS011;4706;41.844;26.082;2022-08-19T06:01:03;11.52;;;10.18;;
9334;SDS011;4706;41.844;26.082;2022-08-19T06:03:34;11.13;;;9.95;;
9334;SDS011;4706;41.844;26.082;2022-08-19T06:06:02;13.15;;;11.60;;
9334;SDS011;4706;41.844;26.082;2022-08-19T06:08:29;14.25;;;10.57;;
9334;SDS011;4706;41.844;26.082;2022-08-19T06:10:55;11.88;;;10.48;;
9334;SDS011;4706;41.844;26.082;2022-08-19T06:13:21;14.00;;;10.02;;
9334;SDS011;4706;41.844;26.082;2022-08-19T06:15:48;11.57;;;10.48;;
9334;SDS011;4706;41.844;26.082;2022-08-19T06:18:14;10.45;;;9.55;;
9334;SDS011;4706;41.844;26.082;2022-08-19T06:20:40;11.55;;;9.57;;
9334;SDS011;4706;41.844;26.082;2022-08-19T06:23:07;11.15;;;9.63;;
9334;SDS011;4706;41.844;26.082;2022-08-19T06:25:34;10.88;;;9.77;;
9334;SDS011;4706;41.844;26.082;2022-08-19T06:27:59;10.18;;;9.27;;
9334;SDS011;4706;41.844;26.082;2022-08-19T06:30:25;10.15;;;9.10;;
9334;SDS011;4706;41.844;26.082;2022-08-19T06:32:51;12.52;;;10.60;;
9334;SDS011;4706;41.844;26.082;2022-08-19T06:35:17;10.93;;;9.93;;
9334;SDS011;4706;41.844;26.082;2022-08-19T06:37:43;10.93;;;9.32;;
9334;SDS011;4706;41.844;26.082;2022-08-19T06:40:10;11.10;;;9.75;;
9334;SDS011;4706;41.844;26.082;2022-08-19T06:42:37;9.30;;;8.55;;
9334;SDS011;4706;41.844;26.082;2022-08-19T06:45:04;9.43;;;8.63;;
9334;SDS011;4706;41.844;26.082;2022-08-19T06:47:33;10.32;;;9.40;;
9334;SDS011;4706;41.844;26.082;2022-08-19T06:49:59;10.82;;;8.63;;
9334;SDS011;4706;41.844;26.082;2022-08-19T06:52:31;9.13;;;8.32;;
9334;SDS011;4706;41.844;26.082;2022-08-19T06:54:58;12.07;;;8.65;;
9334;SDS011;4706;41.844;26.082;2022-08-19T06:57:24;10.32;;;9.02;;
9334;SDS011;4706;41.844;26.082;2022-08-19T06:59:51;10.32;;;8.70;;
9334;SDS011;4706;41.844;26.082;2022-08-19T07:02:17;12.77;;;8.65;;
9334;SDS011;4706;41.844;26.082;2022-08-19T07:04:44;9.50;;;8.13;;
9334;SDS011;4706;41.844;26.082;2022-08-19T07:07:12;12.65;;;9.77;;
9334;SDS011;4706;41.844;26.082;2022-08-19T07:09:40;9.52;;;8.25;;
9334;SDS011;4706;41.844;26.082;2022-08-19T07:12:09;15.20;;;9.13;;
9334;SDS011;4706;41.844;26.082;2022-08-19T07:14:37;12.05;;;9.23;;
9334;SDS011;4706;41.844;26.082;2022-08-19T07:17:05;9.52;;;8.52;;
9334;SDS011;4706;41.844;26.082;2022-08-19T07:19:33;9.63;;;8.80;;
9334;SDS011;4706;41.844;26.082;2022-08-19T07:22:00;8.65;;;7.82;;
9334;SDS011;4706;41.844;26.082;2022-08-19T07:24:28;9.23;;;8.20;;
9334;SDS011;4706;41.844;26.082;2022-08-19T07:26:55;9.65;;;8.57;;
9334;SDS011;4706;41.844;26.082;2022-08-19T07:29:25;8.98;;;8.20;;
9334;SDS011;4706;41.844;26.082;2022-08-19T07:31:52;8.65;;;7.95;;
9334;SDS011;4706;41.844;26.082;2022-08-19T07:34:21;10.27;;;9.07;;
9334;SDS011;4706;41.844;26.082;2022-08-19T07:36:48;10.23;;;9.38;;
9334;SDS011;4706;41.844;26.082;2022-08-19T07:39:19;8.45;;;7.85;;
9334;SDS011;4706;41.844;26.082;2022-08-19T07:41:51;9.98;;;8.52;;
9334;SDS011;4706;41.844;26.082;2022-08-19T07:44:18;9.20;;;8.38;;
9334;SDS011;4706;41.844;26.082;2022-08-19T07:46:46;9.50;;;8.27;;
9334;SDS011;4706;41.844;26.082;2022-08-19T07:49:15;9.05;;;8.35;;
9334;SDS011;4706;41.844;26.082;2022-08-19T07:51:45;9.10;;;8.27;;
9334;SDS011;4706;41.844;26.082;2022-08-19T07:54:12;9.80;;;7.85;;
9334;SDS011;4706;41.844;26.082;2022-08-19T07:56:38;8.40;;;7.63;;
9334;SDS011;4706;41.844;26.082;2022-08-19T07:59:04;8.82;;;8.02;;
9334;SDS011;4706;41.844;26.082;2022-08-19T08:01:30;10.43;;;8.25;;
9334;SDS011;4706;41.844;26.082;2022-08-19T08:03:56;8.65;;;7.95;;
9334;SDS011;4706;41.844;26.082;2022-08-19T08:06:41;8.88;;;7.95;;
9334;SDS011;4706;41.844;26.082;2022-08-19T08:09:27;8.63;;;7.90;;
9334;SDS011;4706;41.844;26.082;2022-08-19T08:11:58;9.18;;;8.35;;
9334;SDS011;4706;41.844;26.082;2022-08-19T08:14:28;8.35;;;7.65;;
9334;SDS011;4706;41.844;26.082;2022-08-19T08:16:57;10.00;;;7.85;;
9334;SDS011;4706;41.844;26.082;2022-08-19T08:19:24;20.23;;;8.80;;
9334;SDS011;4706;41.844;26.082;2022-08-19T08:21:51;16.45;;;8.77;;
9334;SDS011;4706;41.844;26.082;2022-08-19T08:24:18;8.40;;;7.68;;
9334;SDS011;4706;41.844;26.082;2022-08-19T08:26:45;13.57;;;9.23;;
9334;SDS011;4706;41.844;26.082;2022-08-19T08:29:11;9.13;;;7.95;;
9334;SDS011;4706;41.844;26.082;2022-08-19T08:31:38;12.80;;;8.20;;
9334;SDS011;4706;41.844;26.082;2022-08-19T08:34:05;9.20;;;8.35;;
9334;SDS011;4706;41.844;26.082;2022-08-19T08:36:31;8.80;;;8.10;;
9334;SDS011;4706;41.844;26.082;2022-08-19T08:38:59;9.10;;;8.13;;
9334;SDS011;4706;41.844;26.082;2022-08-19T08:41:37;9.32;;;8.18;;
9334;SDS011;4706;41.844;26.082;2022-08-19T08:44:38;13.35;;;12.10;;
9334;SDS011;4706;41.844;26.082;2022-08-19T08:47:16;9.25;;;8.50;;
9334;SDS011;4706;41.844;26.082;2022-08-19T08:49:46;13.18;;;8.90;;
9334;SDS011;4706;41.844;26.082;2022-08-19T08:52:24;13.45;;;12.27;;
9334;SDS011;4706;41.844;26.082;2022-08-19T08:55:03;9.07;;;8.18;;
9334;SDS011;4706;41.844;26.082;2022-08-19T08:57:42;9.00;;;8.25;;
9334;SDS011;4706;41.844;26.082;2022-08-19T09:00:18;9.13;;;8.43;;
9334;SDS011;4706;41.844;26.082;2022-08-19T09:02:46;9.52;;;8.63;;
9334;SDS011;4706;41.844;26.082;2022-08-19T09:05:12;9.25;;;8.50;;
9334;SDS011;4706;41.844;26.082;2022-08-19T09:10:29;8.85;;;8.15;;
9334;SDS011;4706;41.844;26.082;2022-08-19T09:15:29;9.40;;;8.35;;
9334;SDS011;4706;41.844;26.082;2022-08-19T09:18:03;9.30;;;8.48;;
9334;SDS011;4706;41.844;26.082;2022-08-19T09:20:30;11.93;;;10.75;;
9334;SDS011;4706;41.844;26.082;2022-08-19T09:22:56;9.23;;;8.30;;
9334;SDS011;4706;41.844;26.082;2022-08-19T09:25:23;9.25;;;8.43;;
9334;SDS011;4706;41.844;26.082;2022-08-19T09:27:50;8.70;;;7.80;;
9334;SDS011;4706;41.844;26.082;2022-08-19T09:30:23;7.93;;;7.38;;
9334;SDS011;4706;41.844;26.082;2022-08-19T09:32:51;9.73;;;8.70;;
9334;SDS011;4706;41.844;26.082;2022-08-19T09:35:21;8.25;;;7.55;;
9334;SDS011;4706;41.844;26.082;2022-08-19T09:37:48;7.40;;;6.65;;
9334;SDS011;4706;41.844;26.082;2022-08-19T09:40:14;7.38;;;6.70;;
9334;SDS011;4706;41.844;26.082;2022-08-19T09:42:41;7.22;;;6.53;;
9334;SDS011;4706;41.844;26.082;2022-08-19T09:45:09;6.88;;;6.28;;
9334;SDS011;4706;41.844;26.082;2022-08-19T09:47:35;16.10;;;14.52;;
9334;SDS011;4706;41.844;26.082;2022-08-19T09:50:06;5.95;;;5.55;;
9334;SDS011;4706;41.844;26.082;2022-08-19T09:52:33;5.57;;;5.18;;
9334;SDS011;4706;41.844;26.082;2022-08-19T09:55:08;6.07;;;5.43;;
9334;SDS011;4706;41.844;26.082;2022-08-19T09:57:34;6.28;;;5.72;;
9334;SDS011;4706;41.844;26.082;2022-08-19T10:00:00;5.38;;;4.90;;
9334;SDS011;4706;41.844;26.082;2022-08-19T10:02:26;6.55;;;5.82;;
9334;SDS011;4706;41.844;26.082;2022-08-19T10:04:52;6.10;;;5.15;;
9334;SDS011;4706;41.844;26.082;2022-08-19T10:07:36;6.35;;;5.72;;
9334;SDS011;4706;41.844;26.082;2022-08-19T10:10:05;6.10;;;5.70;;
9334;SDS011;4706;41.844;26.082;2022-08-19T10:12:32;9.32;;;6.75;;
9334;SDS011;4706;41.844;26.082;2022-08-19T10:14:58;9.10;;;5.90;;
9334;SDS011;4706;41.844;26.082;2022-08-19T10:17:25;8.27;;;7.57;;
9334;SDS011;4706;41.844;26.082;2022-08-19T10:19:51;6.43;;;6.00;;
9334;SDS011;4706;41.844;26.082;2022-08-19T10:22:18;7.40;;;6.75;;
9334;SDS011;4706;41.844;26.082;2022-08-19T10:24:45;11.82;;;6.15;;
9334;SDS011;4706;41.844;26.082;2022-08-19T10:27:11;6.25;;;5.75;;
9334;SDS011;4706;41.844;26.082;2022-08-19T10:29:38;5.88;;;5.38;;
9334;SDS011;4706;41.844;26.082;2022-08-19T10:32:05;5.93;;;5.43;;
9334;SDS011;4706;41.844;26.082;2022-08-19T10:34:32;6.32;;;5.82;;
9334;SDS011;4706;41.844;26.082;2022-08-19T10:36:59;7.00;;;6.10;;
9334;SDS011;4706;41.844;26.082;2022-08-19T10:39:29;7.78;;;7.03;;
9334;SDS011;4706;41.844;26.082;2022-08-19T10:41:55;6.88;;;6.30;;
9334;SDS011;4706;41.844;26.082;2022-08-19T10:44:22;6.57;;;5.97;;
9334;SDS011;4706;41.844;26.082;2022-08-19T10:46:48;6.72;;;5.82;;
9334;SDS011;4706;41.844;26.082;2022-08-19T10:49:13;7.13;;;5.65;;
9334;SDS011;4706;41.844;26.082;2022-08-19T10:51:40;7.70;;;6.30;;
9334;SDS011;4706;41.844;26.082;2022-08-19T10:54:24;6.05;;;5.63;;
9334;SDS011;4706;41.844;26.082;2022-08-19T10:57:10;6.63;;;5.80;;
9334;SDS011;4706;41.844;26.082;2022-08-19T10:59:36;5.63;;;5.22;;
9334;SDS011;4706;41.844;26.082;2022-08-19T11:02:03;6.05;;;5.45;;
9334;SDS011;4706;41.844;26.082;2022-08-19T11:04:31;6.07;;;5.68;;
9334;SDS011;4706;41.844;26.082;2022-08-19T11:06:57;5.90;;;5.50;;
9334;SDS011;4706;41.844;26.082;2022-08-19T11:09:24;5.93;;;5.32;;
9334;SDS011;4706;41.844;26.082;2022-08-19T11:11:51;6.38;;;5.75;;
9334;SDS011;4706;41.844;26.082;2022-08-19T11:14:18;7.60;;;6.90;;
9334;SDS011;4706;41.844;26.082;2022-08-19T11:16:46;6.50;;;5.95;;
9334;SDS011;4706;41.844;26.082;2022-08-19T11:19:13;6.10;;;5.65;;
9334;SDS011;4706;41.844;26.082;2022-08-19T11:21:43;6.65;;;6.15;;
9334;SDS011;4706;41.844;26.082;2022-08-19T11:24:19;6.68;;;6.18;;
9334;SDS011;4706;41.844;26.082;2022-08-19T11:26:47;6.80;;;6.20;;
9334;SDS011;4706;41.844;26.082;2022-08-19T11:29:14;6.70;;;6.10;;
9334;SDS011;4706;41.844;26.082;2022-08-19T11:31:42;6.50;;;6.00;;
9334;SDS011;4706;41.844;26.082;2022-08-19T11:34:11;6.40;;;5.90;;
9334;SDS011;4706;41.844;26.082;2022-08-19T11:36:41;6.78;;;6.32;;
9334;SDS011;4706;41.844;26.082;2022-08-19T11:39:09;7.30;;;6.78;;
9334;SDS011;4706;41.844;26.082;2022-08-19T11:41:36;7.10;;;6.60;;
9334;SDS011;4706;41.844;26.082;2022-08-19T11:44:03;7.65;;;6.55;;
9334;SDS011;4706;41.844;26.082;2022-08-19T11:46:29;7.15;;;6.45;;
9334;SDS011;4706;41.844;26.082;2022-08-19T11:48:57;7.07;;;6.65;;
9334;SDS011;4706;41.844;26.082;2022-08-19T11:51:24;7.72;;;6.88;;
9334;SDS011;4706;41.844;26.082;2022-08-19T11:53:51;7.18;;;6.60;;
9334;SDS011;4706;41.844;26.082;2022-08-19T11:56:20;7.45;;;6.75;;
9334;SDS011;4706;41.844;26.082;2022-08-19T11:58:46;8.00;;;7.40;;
9334;SDS011;4706;41.844;26.082;2022-08-19T12:01:13;7.75;;;7.15;;
9334;SDS011;4706;41.844;26.082;2022-08-19T12:03:41;7.95;;;7.30;;
9334;SDS011;4706;41.844;26.082;2022-08-19T12:06:09;7.15;;;6.68;;
9334;SDS011;4706;41.844;26.082;2022-08-19T12:08:40;7.93;;;7.32;;
9334;SDS011;4706;41.844;26.082;2022-08-19T12:11:06;7.15;;;6.60;;
9334;SDS011;4706;41.844;26.082;2022-08-19T12:13:36;7.88;;;7.35;;
9334;SDS011;4706;41.844;26.082;2022-08-19T12:16:13;7.57;;;7.00;;
9334;SDS011;4706;41.844;26.082;2022-08-19T12:18:41;7.57;;;6.95;;
9334;SDS011;4706;41.844;26.082;2022-08-19T12:21:18;8.57;;;7.70;;
9334;SDS011;4706;41.844;26.082;2022-08-19T12:23:54;7.60;;;7.00;;
9334;SDS011;4706;41.844;26.082;2022-08-19T12:26:20;8.52;;;7.82;;
9334;SDS011;4706;41.844;26.082;2022-08-19T12:28:46;7.13;;;6.60;;
9334;SDS011;4706;41.844;26.082;2022-08-19T12:31:13;7.70;;;7.20;;
9334;SDS011;4706;41.844;26.082;2022-08-19T12:33:40;7.88;;;7.07;;
9334;SDS011;4706;41.844;26.082;2022-08-19T12:36:08;7.55;;;6.80;;
9334;SDS011;4706;41.844;26.082;2022-08-19T12:38:35;9.30;;;8.50;;
9334;SDS011;4706;41.844;26.082;2022-08-19T12:41:02;7.82;;;7.07;;
9334;SDS011;4706;41.844;26.082;2022-08-19T12:43:31;7.88;;;7.28;;
9334;SDS011;4706;41.844;26.082;2022-08-19T12:45:57;9.90;;;9.20;;
9334;SDS011;4706;41.844;26.082;2022-08-19T12:48:23;7.93;;;7.43;;
9334;SDS011;4706;41.844;26.082;2022-08-19T12:50:49;7.90;;;7.30;;
9334;SDS011;4706;41.844;26.082;2022-08-19T12:53:15;7.28;;;6.78;;
9334;SDS011;4706;41.844;26.082;2022-08-19T12:55:41;7.63;;;7.13;;
9334;SDS011;4706;41.844;26.082;2022-08-19T12:58:08;6.80;;;6.30;;
9334;SDS011;4706;41.844;26.082;2022-08-19T13:00:34;7.22;;;6.45;;
9334;SDS011;4706;41.844;26.082;2022-08-19T13:03:00;6.90;;;6.40;;
9334;SDS011;4706;41.844;26.082;2022-08-19T13:05:27;7.18;;;6.63;;
9334;SDS011;4706;41.844;26.082;2022-08-19T13:07:55;6.75;;;6.18;;
9334;SDS011;4706;41.844;26.082;2022-08-19T13:10:24;7.38;;;6.78;;
9334;SDS011;4706;41.844;26.082;2022-08-19T13:12:53;7.57;;;7.07;;
9334;SDS011;4706;41.844;26.082;2022-08-19T13:15:19;7.72;;;7.10;;
9334;SDS011;4706;41.844;26.082;2022-08-19T13:17:47;10.02;;;9.02;;
9334;SDS011;4706;41.844;26.082;2022-08-19T13:20:15;7.53;;;6.88;;
9334;SDS011;4706;41.844;26.082;2022-08-19T13:22:42;12.50;;;8.13;;
9334;SDS011;4706;41.844;26.082;2022-08-19T13:25:10;7.22;;;6.60;;
9334;SDS011;4706;41.844;26.082;2022-08-19T13:27:37;8.20;;;6.97;;
9334;SDS011;4706;41.844;26.082;2022-08-19T13:30:03;7.03;;;6.35;;
9334;SDS011;4706;41.844;26.082;2022-08-19T13:32:48;6.45;;;5.97;;
9334;SDS011;4706;41.844;26.082;2022-08-19T13:35:32;9.55;;;7.25;;
9334;SDS011;4706;41.844;26.082;2022-08-19T13:37:58;8.23;;;6.85;;
9334;SDS011;4706;41.844;26.082;2022-08-19T13:40:24;6.85;;;6.20;;
9334;SDS011;4706;41.844;26.082;2022-08-19T13:42:52;7.43;;;6.93;;
9334;SDS011;4706;41.844;26.082;2022-08-19T13:45:20;6.75;;;6.30;;
9334;SDS011;4706;41.844;26.082;2022-08-19T13:47:49;6.38;;;5.88;;
9334;SDS011;4706;41.844;26.082;2022-08-19T13:50:17;6.22;;;5.72;;
9334;SDS011;4706;41.844;26.082;2022-08-19T13:52:45;6.57;;;5.97;;
9334;SDS011;4706;41.844;26.082;2022-08-19T13:55:12;6.30;;;5.60;;
9334;SDS011;4706;41.844;26.082;2022-08-19T13:57:39;6.28;;;5.78;;
9334;SDS011;4706;41.844;26.082;2022-08-19T14:00:10;6.13;;;5.63;;
9334;SDS011;4706;41.844;26.082;2022-08-19T14:02:39;6.30;;;5.82;;
9334;SDS011;4706;41.844;26.082;2022-08-19T14:05:05;5.68;;;5.28;;
9334;SDS011;4706;41.844;26.082;2022-08-19T14:07:33;6.03;;;5.53;;
9334;SDS011;4706;41.844;26.082;2022-08-19T14:09:58;6.78;;;5.75;;
9334;SDS011;4706;41.844;26.082;2022-08-19T14:12:24;6.55;;;5.95;;
9334;SDS011;4706;41.844;26.082;2022-08-19T14:14:50;6.45;;;5.85;;
9334;SDS011;4706;41.844;26.082;2022-08-19T14:17:15;7.00;;;5.68;;
9334;SDS011;4706;41.844;26.082;2022-08-19T14:19:41;6.18;;;5.68;;
9334;SDS011;4706;41.844;26.082;2022-08-19T14:22:07;8.57;;;5.78;;
9334;SDS011;4706;41.844;26.082;2022-08-19T14:24:34;6.82;;;5.63;;
9334;SDS011;4706;41.844;26.082;2022-08-19T14:27:03;5.68;;;5.18;;
9334;SDS011;4706;41.844;26.082;2022-08-19T14:29:29;6.15;;;5.53;;
9334;SDS011;4706;41.844;26.082;2022-08-19T14:31:55;6.40;;;5.90;;
9334;SDS011;4706;41.844;26.082;2022-08-19T14:34:24;10.13;;;6.32;;
9334;SDS011;4706;41.844;26.082;2022-08-19T14:36:50;6.13;;;5.60;;
9334;SDS011;4706;41.844;26.082;2022-08-19T14:39:16;6.05;;;5.55;;
9334;SDS011;4706;41.844;26.082;2022-08-19T14:41:41;5.57;;;5.18;;
9334;SDS011;4706;41.844;26.082;2022-08-19T14:44:07;6.75;;;6.10;;
9334;SDS011;4706;41.844;26.082;2022-08-19T14:46:37;6.10;;;5.60;;
9334;SDS011;4706;41.844;26.082;2022-08-19T14:49:03;6.38;;;5.78;;
9334;SDS011;4706;41.844;26.082;2022-08-19T14:51:29;6.35;;;5.85;;
9334;SDS011;4706;41.844;26.082;2022-08-19T14:53:55;6.15;;;5.65;;
9334;SDS011;4706;41.844;26.082;2022-08-19T14:56:22;6.25;;;5.63;;
9334;SDS011;4706;41.844;26.082;2022-08-19T14:58:50;6.20;;;5.75;;
9334;SDS011;4706;41.844;26.082;2022-08-19T15:01:17;5.55;;;5.05;;
9334;SDS011;4706;41.844;26.082;2022-08-19T15:03:45;6.90;;;5.70;;
9334;SDS011;4706;41.844;26.082;2022-08-19T15:06:11;7.20;;;6.43;;
9334;SDS011;4706;41.844;26.082;2022-08-19T15:08:37;6.45;;;5.85;;